Terminal Aerodrome Forecast
Issued by NWS

Home | Current Version | Previous Version | Text Only | Print | Product List | Glossary On
Versions: 1 2 3 4 5 6 7 8 9 10 11 12 13
000
FTUS41 KBTV 010520
TAFRUT
TAF
KRUT 010520Z 0106/0206 14006KT P6SM SCT120
     FM011000 14005KT P6SM SCT060 BKN100
     FM011400 26007KT P6SM SCT100
     FM020000 13005KT P6SM SCT090
      AMD NOT SKED=

USA.gov is the U.S. government's official web portal to all federal, state and local government web resources and services.